Ride Results

Ride Around The Rock (26-10-2013)
Ride distance: 80.0 km

Outcomes - Ride Around The Rock (26-10-2013)
Division No. of Entries Retired / DNE Completed Withdrawn Ineligible V/O Percentage Completed
HW 8 - 3 1 - 4 37.50%
MW 17 - 11 - - 6 64.71%
LW 16 - 15 1 - - 93.75%
JN 6 - 3 - - 3 50.00%
Totals 47 - 32 2 - 13 68.09%
Results - Ride Around The Rock (26-10-2013)
No. Rider Horse Place Time Leg Speeds Total
Km/Hr
H/R bpm
Heavyweight
3 Cris Magnabosco Magna Contessa 1 (BC) 4:44:00 17.7, 16.1 16.90 40, 46, 39 (Avg:42)
6 Jessica Dastani Bar Diamond Impulse 2 7:20:00 11.3, 10.5 10.91 34, 42, 45 (Avg:43)
33 Paddy Smith Akifa Farras Abagwa 2 7:20:00 11.5, 10.3 10.91 42, 47, 55 (Avg:51)
46 Heidi Wade Yinbilliko Jackson Lame L2 0:00:00 19.5, 19.6 - 39, 40, 43 (Avg:41)
21 Allan Caslick A'Landell Soul Withdrawn L1 0:00:00 - - 35, 38 (Avg:38)
47 Marty Moran Jelignite Jack Lame L1 0:00:00 22.0 - 45, 46, 50 (Avg:48)
25 Jack Johnson Sharahd Namaree Lame P/R 0:00:00 - - 37, 42 (Avg:42)
4 Scott Peters Castlebar Icon Back P/R 0:00:00 - - 40, 40 (Avg:40)
Middleweight
41 Talea Hasko-Stewart Blake's Heaven Bombora 1 3:41:00 22.2, 21.2 21.72 29, 46, 50 (Avg:48)
39 Kristie Wright Blake's Heaven Venus 1 3:41:00 22.2, 21.2 21.72 37, 44, 51 (Avg:47)
8 Ben Hudson Cap Braveheart 3 (BC) 4:06:00 19.5, 19.5 19.51 40, 42, 40 (Avg:41)
V126 Wendy Riha Littlebanks Crystal Wings 4 4:35:00 18.8, 16.2 17.45 36, 39, 43 (Avg:41)
40 Ian Curtis Blake's Heaven Angelico 5 5:37:00 15.9, 12.8 14.24 33, 43, 47 (Avg:45)
7 Ava Pellizzari Zzariava Valentino 6 5:44:00 16.6, 11.9 13.95 32, 46, 38 (Avg:42)
10 Jenny Berg Oso Ellazandra 7 6:22:00 9.5, 18.4 12.57 39, 47, 48 (Avg:47)
37 Bree Hollingsworth S'Shaada Quill 8 6:53:00 13.1, 10.4 11.62 45, 46, 49 (Avg:47)
51 Gertraud Norton Scarlet Oaks Amica 9 7:05:00 11.5, 11.0 11.29 37, 43, 49 (Avg:46)
12 Ellen Vine Jirrima Designer 10 7:20:00 11.3, 10.5 10.91 35, 38, 45 (Avg:41)
2 Sharyn Coulston Castlebar Tolkien 11 7:23:00 11.7, 10.0 10.84 39, 49, 49 (Avg:49)
26 Bridie Lewis Matta Mia Zahir Lame L2 0:00:00 12.5, 12.5 - 42, 40, 58 (Avg:49)
11 Christopher Clarke Zastava Park Saruman Lame L1 0:00:00 6.0 - 38, 37, 46 (Avg:41)
27 Rebecca Lees Brindellah Desert Prince Lame L1 0:00:00 11.0 - 35, 49 (Avg:49)
43 Noni Seagrim Cromarty Park Zataal Lame L1 0:00:00 20.8 - 38, 50 (Avg:50)
49 Bev Turner Shazzam Lame L1 0:00:00 20.3 - 38, 50 (Avg:50)
V157 Melinda Williams Lord Anthony of Seven Oaks Lame P/R 0:00:00 - - 45, 47 (Avg:47)
Lightweight
42 Fia Hasko-Stewart Wantley Kaliph 1 3:41:00 22.2, 21.2 21.72 38, 47, 47 (Avg:47)
45 Vetea Facchini Trigger 2 (BC) 4:05:00 19.5, 19.6 19.59 36, 45, 44 (Avg:44)
32 Courtney Chapman Kintamani Jaffah 3 4:17:00 18.7, 18.6 18.68 33, 46, 44 (Avg:45)
15 Bianca Whitehead Kelkette Park Deity 4 4:25:00 20.3, 16.3 18.11 40, 49, 55 (Avg:52)
35 Kali Curtis Blake's Heaven Carousel 5 5:37:00 15.9, 12.8 14.24 34, 43, 42 (Avg:42)
1 April Newman Tarnette 6 5:44:00 16.6, 11.9 13.95 37, 43, 44 (Avg:43)
V91 Kim Noble Quindelin Desert Gleam 7 6:08:00 13.0, 13.0 13.04 38, 46, 48 (Avg:47)
16 Felicia Ingram Cozie 8 6:14:00 13.4, 12.2 12.83 43, 44, 46 (Avg:45)
14 Chloe Paton Maktoum Exceed 8 6:14:00 13.0, 12.6 12.83 40, 44, 56 (Avg:50)
29 Sue Todd Shalacey Bear 10 6:20:00 13.7, 11.7 12.63 38, 45, 47 (Avg:46)
17 Sorsha Stuart-Rokvic Marneross Zameel 11 6:22:00 12.4, 12.6 12.57 39, 42, 48 (Avg:45)
50 Elaine Kirby Excessabelle 12 6:39:00 12.6, 11.4 12.03 35, 39, 43 (Avg:41)
36 Mary Hollingsworth Henley Farm Hunaak 13 6:53:00 13.1, 10.4 11.62 37, 44, 43 (Avg:43)
38 Ella Ussher Amaki's Perlino on Ice 14 7:05:00 11.5, 11.0 11.29 36, 41, 44 (Avg:42)
13 Anne Lymbery Garonne park Missella 15 7:23:00 11.7, 10.0 10.84 35, 42, 44 (Avg:43)
28 Emma Miles-Howe Sweet Meadows Enchant Withdrawn L2 0:00:00 - - 41, 47, 43 (Avg:45)
Junior
31 Georgia Curry Kintamani Silver Motif 1 (BC) 4:17:00 18.7, 18.6 18.68 34, 44, 47 (Avg:45)
18 Stacey Clarke Feisty Echo 2 6:22:00 12.4, 12.6 12.57 36, 41, 53 (Avg:47)
V225 Harrison Berg Mahazin Bronze Azar 3 6:27:00 12.6, 12.1 12.40 33, 41, 49 (Avg:45)
20 Cybele Coddington Wanstead Abracadabra Lame L2 0:00:00 13.7, 11.7 - 31, 44, 47 (Avg:45)
19 Sarah Lymbery Mountain Ash Pale Moon Lame L2 0:00:00 12.6, 12.1 - 33, 45, 51 (Avg:48)
24 Tayla Warren Sharahd Zh'Laan Lame P/R 0:00:00 - - 38, 46 (Avg:46)